createdAt,value
2022-10-05T00:01:41.744Z,70.67
2022-10-05T00:04:15.753Z,70.77
2022-10-05T00:06:47.706Z,70.78
2022-10-05T00:09:20.900Z,70.70
2022-10-05T00:11:47.716Z,70.81
2022-10-05T00:14:22.783Z,70.70
2022-10-05T00:16:49.625Z,70.81
2022-10-05T00:19:23.513Z,70.96
2022-10-05T00:21:50.080Z,71.13
2022-10-05T00:24:19.243Z,71.20
2022-10-05T00:26:46.399Z,71.23
2022-10-05T00:29:18.995Z,71.09
2022-10-05T00:31:45.668Z,71.15
2022-10-05T00:34:12.417Z,71.33
2022-10-05T00:36:39.496Z,71.68
2022-10-05T00:39:05.989Z,71.50
2022-10-05T00:41:42.741Z,71.63
2022-10-05T00:44:23.824Z,71.33
2022-10-05T00:47:28.265Z,71.14
2022-10-05T00:50:08.827Z,71.35
2022-10-05T00:52:44.171Z,71.35
2022-10-05T00:55:18.709Z,71.34
2022-10-05T00:58:04.988Z,71.34
2022-10-05T01:00:31.690Z,71.29
2022-10-05T01:02:59.694Z,71.47
2022-10-05T01:05:44.496Z,71.68
2022-10-05T01:08:35.743Z,71.62
2022-10-05T01:11:17.956Z,71.76
2022-10-05T01:13:44.421Z,71.75
2022-10-05T01:16:14.202Z,71.75
2022-10-05T01:19:07.509Z,71.79
2022-10-05T01:21:38.900Z,71.65
2022-10-05T01:24:22.809Z,71.78
2022-10-05T01:26:53.747Z,71.58
2022-10-05T01:29:32.416Z,71.67
2022-10-05T01:32:07.737Z,71.84
2022-10-05T01:34:41.783Z,71.90
2022-10-05T01:37:23.881Z,71.97
2022-10-05T01:40:02.817Z,71.76
2022-10-05T01:42:50.610Z,71.83
2022-10-05T01:45:44.247Z,71.70
2022-10-05T01:48:20.044Z,71.84
2022-10-05T01:51:00.018Z,71.96
2022-10-05T01:53:45.265Z,72.19
2022-10-05T01:56:14.863Z,72.13
2022-10-05T01:59:03.241Z,72.20
2022-10-05T02:01:36.216Z,72.25
2022-10-05T02:04:59.835Z,72.11
2022-10-05T02:07:21.749Z,71.66
2022-10-05T02:09:59.773Z,71.76
2022-10-05T02:12:29.271Z,71.92
2022-10-05T02:14:58.685Z,71.93
2022-10-05T02:17:29.779Z,71.91
2022-10-05T02:19:59.359Z,71.97
2022-10-05T02:22:32.554Z,72.03
2022-10-05T02:25:01.072Z,72.10
2022-10-05T02:27:29.735Z,72.22
2022-10-05T02:29:58.912Z,72.19
2022-10-05T02:32:27.371Z,72.40
2022-10-05T02:34:53.958Z,72.64
2022-10-05T02:37:57.441Z,72.67
2022-10-05T02:40:41.753Z,72.63
2022-10-05T02:43:14.659Z,72.58
2022-10-05T02:46:09.868Z,72.66
2022-10-05T02:49:13.945Z,72.66
2022-10-05T02:51:51.762Z,72.79
2022-10-05T02:54:32.585Z,72.86
2022-10-05T02:57:16.764Z,72.64
2022-10-05T03:06:03.101Z,72.82
2022-10-05T03:08:47.374Z,73.00
2022-10-05T03:11:29.644Z,73.11
2022-10-05T03:14:29.025Z,73.07
2022-10-05T03:17:25.109Z,73.07
2022-10-05T03:20:13.920Z,73.00
2022-10-05T03:23:10.516Z,73.27
2022-10-05T03:26:02.653Z,73.23
2022-10-05T03:28:48.022Z,73.32
2022-10-05T03:31:26.669Z,73.44
2022-10-05T03:33:59.773Z,73.52
2022-10-05T03:36:39.013Z,73.59
2022-10-05T03:39:19.405Z,73.54
2022-10-05T03:41:51.633Z,73.33
2022-10-05T03:44:43.627Z,73.33
2022-10-05T03:47:28.834Z,73.21
2022-10-05T03:50:22.864Z,73.31
2022-10-05T03:52:51.725Z,73.29
2022-10-05T03:55:36.388Z,73.31
2022-10-05T03:58:10.679Z,73.21
2022-10-05T04:00:37.512Z,73.29
2022-10-05T04:03:18.923Z,73.31
2022-10-05T04:05:57.403Z,73.36
2022-10-05T04:08:47.877Z,73.23
2022-10-05T04:11:18.609Z,73.08
2022-10-05T04:13:54.768Z,73.11
2022-10-05T04:16:23.680Z,73.22
2022-10-05T04:18:59.084Z,73.25
2022-10-05T04:21:37.255Z,73.13
2022-10-05T04:24:07.004Z,73.23
2022-10-05T04:26:51.253Z,73.26
2022-10-05T04:29:46.150Z,73.15
2022-10-05T04:32:16.080Z,73.26
2022-10-05T04:34:45.372Z,73.48
2022-10-05T04:37:22.162Z,73.23
2022-10-05T04:39:59.043Z,73.54
2022-10-05T04:42:38.416Z,73.52
2022-10-05T04:45:09.714Z,73.44
2022-10-05T04:47:58.950Z,73.56
2022-10-05T04:50:54.829Z,73.54
2022-10-05T04:53:50.095Z,73.44
2022-10-05T04:56:20.159Z,73.54
2022-10-05T04:59:03.852Z,73.68
2022-10-05T05:01:39.927Z,73.59
2022-10-05T05:04:25.796Z,73.67
2022-10-05T05:07:28.889Z,73.56
2022-10-05T05:10:02.409Z,73.61
2022-10-05T05:12:49.607Z,73.70
2022-10-05T05:15:28.328Z,73.92
2022-10-05T05:18:10.325Z,73.00
2022-10-05T05:20:41.748Z,72.67
2022-10-05T05:23:27.154Z,72.19
2022-10-05T05:26:07.515Z,71.28
2022-10-05T05:28:54.666Z,70.68
2022-10-05T05:31:30.980Z,70.10
2022-10-05T05:34:04.117Z,69.84
2022-10-05T05:37:00.881Z,69.67
2022-10-05T05:40:14.208Z,69.63
2022-10-05T05:42:55.956Z,70.05
2022-10-05T05:45:48.777Z,69.25
2022-10-05T05:48:47.099Z,67.38
2022-10-05T05:51:22.403Z,64.88
2022-10-05T05:53:55.519Z,62.37
2022-10-05T05:56:30.646Z,60.32
2022-10-05T05:59:02.671Z,59.31
2022-10-05T06:01:46.163Z,58.79
2022-10-05T06:04:25.215Z,57.68
2022-10-05T06:06:53.212Z,56.81
2022-10-05T06:09:47.835Z,56.22
2022-10-05T06:12:32.877Z,56.74
2022-10-05T06:15:05.495Z,57.16
2022-10-05T06:17:41.584Z,56.78
2022-10-05T06:20:28.977Z,54.71
2022-10-05T06:22:56.007Z,51.87
2022-10-05T06:25:57.406Z,49.11
2022-10-05T06:28:25.114Z,46.77
2022-10-05T06:31:04.377Z,44.43
2022-10-05T06:33:52.005Z,42.30
2022-10-05T06:36:22.234Z,40.34
2022-10-05T06:39:07.935Z,38.55
2022-10-05T06:41:42.712Z,36.22
2022-10-05T06:44:23.441Z,34.23
2022-10-05T06:47:23.568Z,33.09
2022-10-05T06:49:56.842Z,33.59
2022-10-05T06:52:29.563Z,34.32
2022-10-05T06:54:58.846Z,34.67
2022-10-05T06:57:52.902Z,33.52
2022-10-05T07:00:24.971Z,32.14
2022-10-05T07:03:18.667Z,31.94
2022-10-05T07:05:54.566Z,30.81
2022-10-05T07:08:34.066Z,30.82
2022-10-05T07:11:18.912Z,30.43
2022-10-05T07:14:06.796Z,30.30
2022-10-05T07:16:47.161Z,30.51
2022-10-05T07:19:22.265Z,31.13
2022-10-05T07:21:58.165Z,31.98
2022-10-05T07:24:29.368Z,32.35
2022-10-05T07:30:56.436Z,31.98
2022-10-05T07:33:29.038Z,31.31
2022-10-05T07:36:20.316Z,31.01
2022-10-05T07:38:54.773Z,30.63
2022-10-05T07:41:47.953Z,30.01
2022-10-05T07:44:29.631Z,28.85
2022-10-05T07:47:04.913Z,27.92
2022-10-05T07:50:09.953Z,27.91
2022-10-05T07:52:37.972Z,27.68
2022-10-05T07:55:06.902Z,26.76
2022-10-05T07:57:58.672Z,27.05
2022-10-05T08:00:26.338Z,27.56
2022-10-05T08:02:58.646Z,28.28
2022-10-05T08:05:43.676Z,28.63
2022-10-05T08:08:15.505Z,28.85
2022-10-05T08:11:14.884Z,29.32
2022-10-05T08:13:56.579Z,29.05
2022-10-05T08:16:23.495Z,29.42
2022-10-05T08:19:06.746Z,29.48
2022-10-05T08:21:35.496Z,29.59
2022-10-05T08:24:07.207Z,30.10
2022-10-05T08:26:36.335Z,29.87
2022-10-05T08:29:17.278Z,29.93
2022-10-05T08:31:46.349Z,29.88
2022-10-05T08:34:25.113Z,30.34
2022-10-05T08:37:03.820Z,30.32
2022-10-05T08:39:34.363Z,30.73
2022-10-05T08:42:10.339Z,31.17
2022-10-05T08:44:55.320Z,31.61
2022-10-05T08:47:28.299Z,31.92
2022-10-05T08:50:04.305Z,31.91
2022-10-05T08:52:56.445Z,32.12
2022-10-05T08:55:43.811Z,31.97
2022-10-05T08:58:19.977Z,32.32
2022-10-05T09:00:57.721Z,32.52
2022-10-05T09:03:51.614Z,33.05
2022-10-05T09:06:22.607Z,33.43
2022-10-05T09:08:55.695Z,33.77
2022-10-05T09:11:38.974Z,34.00
2022-10-05T09:14:11.774Z,34.58
2022-10-05T09:16:59.308Z,34.76
2022-10-05T09:19:47.333Z,34.73
2022-10-05T09:22:38.622Z,34.72
2022-10-05T09:25:30.764Z,34.78
2022-10-05T09:28:21.927Z,35.14
2022-10-05T09:31:20.458Z,35.42
2022-10-05T09:34:26.006Z,35.64
2022-10-05T09:37:11.855Z,35.93
2022-10-05T09:40:04.041Z,36.26
2022-10-05T09:42:34.274Z,36.07
2022-10-05T09:45:45.881Z,35.85
2022-10-05T09:48:34.191Z,35.78
2022-10-05T09:51:00.762Z,35.74
2022-10-05T09:53:42.574Z,35.76
2022-10-05T09:56:21.266Z,35.44
2022-10-05T09:59:25.666Z,35.78
2022-10-05T10:02:30.912Z,35.84
2022-10-05T10:05:16.627Z,35.97
2022-10-05T10:08:00.820Z,36.27
2022-10-05T10:10:52.996Z,36.09
2022-10-05T10:13:31.722Z,35.91
2022-10-05T10:16:16.987Z,35.93
2022-10-05T10:19:06.794Z,35.82
2022-10-05T10:21:54.828Z,35.90
2022-10-05T10:24:26.138Z,35.81
2022-10-05T10:27:05.726Z,35.13
2022-10-05T10:29:33.982Z,35.68
2022-10-05T10:32:21.656Z,35.37
2022-10-05T10:35:00.499Z,35.74
2022-10-05T10:38:12.480Z,35.40
2022-10-05T10:41:02.703Z,35.87
2022-10-05T10:43:29.815Z,35.70
2022-10-05T10:46:00.027Z,36.21
2022-10-05T10:48:29.543Z,36.12
2022-10-05T10:51:14.612Z,35.79
2022-10-05T10:54:05.416Z,36.15
2022-10-05T10:56:55.505Z,36.21
2022-10-05T11:00:20.881Z,36.00
2022-10-05T11:02:54.907Z,36.28
2022-10-05T11:05:52.265Z,36.27
2022-10-05T11:08:37.894Z,36.11
2022-10-05T11:11:29.567Z,36.47
2022-10-05T11:14:04.997Z,36.87
2022-10-05T11:16:43.675Z,36.89
2022-10-05T11:19:10.441Z,37.05
2022-10-05T11:22:00.280Z,37.16
2022-10-05T11:24:50.589Z,37.30
2022-10-05T11:27:41.398Z,37.57
2022-10-05T11:30:40.306Z,37.72
2022-10-05T11:33:34.646Z,37.77
2022-10-05T11:36:26.238Z,37.75
2022-10-05T11:39:05.482Z,38.24
2022-10-05T11:42:09.431Z,37.83
2022-10-05T11:44:54.642Z,37.93
2022-10-05T11:47:42.175Z,37.98
2022-10-05T11:50:26.905Z,38.15
2022-10-05T11:53:00.116Z,38.12
2022-10-05T11:55:27.267Z,37.83
2022-10-05T11:58:15.962Z,38.44
2022-10-05T12:00:44.289Z,38.48
2022-10-05T12:03:35.442Z,38.39
2022-10-05T12:06:25.732Z,38.53
2022-10-05T12:09:14.466Z,38.84
2022-10-05T12:12:23.163Z,38.84
2022-10-05T12:14:54.665Z,38.64
2022-10-05T12:17:21.258Z,38.82
2022-10-05T12:20:28.255Z,38.88
2022-10-05T12:23:00.743Z,39.01
2022-10-05T12:25:33.131Z,39.24
2022-10-05T12:28:05.063Z,39.25
2022-10-05T12:30:58.204Z,39.32
2022-10-05T12:33:26.551Z,38.93
2022-10-05T12:35:56.128Z,39.16
2022-10-05T12:38:30.788Z,39.01
2022-10-05T12:41:04.526Z,39.17
2022-10-05T12:43:54.385Z,39.27
2022-10-05T12:46:29.906Z,39.22
2022-10-05T12:49:06.978Z,39.03
2022-10-05T12:51:58.533Z,39.12
2022-10-05T12:54:47.704Z,38.96
2022-10-05T12:57:32.665Z,39.20
2022-10-05T13:00:01.747Z,39.23
2022-10-05T13:02:42.483Z,39.52
2022-10-05T13:05:09.538Z,39.60
2022-10-05T13:07:54.774Z,39.23
2022-10-05T13:10:39.415Z,39.69
2022-10-05T13:13:34.231Z,39.76
2022-10-05T13:16:17.223Z,39.81
2022-10-05T13:19:15.563Z,39.96
2022-10-05T13:22:10.274Z,40.15
2022-10-05T13:24:59.515Z,40.26
2022-10-05T13:27:47.266Z,40.18
2022-10-05T13:30:19.150Z,40.41
2022-10-05T13:32:47.953Z,40.63
2022-10-05T13:35:53.406Z,40.64
2022-10-05T13:38:34.171Z,40.86
2022-10-05T13:41:14.782Z,40.99
2022-10-05T13:43:51.482Z,40.99
2022-10-05T13:46:23.732Z,41.10
2022-10-05T13:49:09.093Z,41.31
2022-10-05T13:51:41.108Z,41.32
2022-10-05T13:54:45.160Z,41.38
2022-10-05T13:57:11.885Z,41.40
2022-10-05T13:59:51.218Z,41.47
2022-10-05T14:02:40.147Z,41.39
2022-10-05T14:05:29.795Z,41.71
2022-10-05T14:08:02.475Z,41.81
2022-10-05T14:10:38.590Z,41.80
2022-10-05T14:13:32.367Z,41.76
2022-10-05T14:15:59.803Z,41.88
2022-10-05T14:18:28.032Z,41.93
2022-10-05T14:21:18.822Z,41.98
2022-10-05T14:23:45.367Z,42.09
2022-10-05T14:26:27.526Z,42.25
2022-10-05T14:29:19.482Z,42.29
2022-10-05T14:31:58.476Z,42.44
2022-10-05T14:34:35.539Z,42.67
2022-10-05T14:37:23.398Z,42.83
2022-10-05T14:39:52.220Z,42.77
2022-10-05T14:42:27.809Z,42.88
2022-10-05T14:45:11.920Z,42.87
2022-10-05T14:47:54.402Z,42.94
2022-10-05T14:50:26.213Z,43.00
2022-10-05T14:53:22.571Z,42.95
2022-10-05T14:55:55.917Z,43.12
2022-10-05T14:58:24.340Z,43.35
2022-10-05T15:00:56.955Z,43.33
2022-10-05T15:03:41.770Z,43.47
2022-10-05T15:06:16.262Z,43.64
2022-10-05T15:09:17.652Z,43.89
2022-10-05T15:11:47.132Z,44.07
2022-10-05T15:14:25.445Z,44.29
2022-10-05T15:16:54.044Z,44.45
2022-10-05T15:19:27.873Z,44.65
2022-10-05T15:22:19.541Z,44.74
2022-10-05T15:24:53.232Z,44.82
2022-10-05T15:27:36.474Z,45.18
2022-10-05T15:30:13.997Z,45.51
2022-10-05T15:33:08.729Z,45.54
2022-10-05T15:35:44.607Z,45.70
2022-10-05T15:38:34.258Z,45.99
2022-10-05T15:41:20.619Z,45.93
2022-10-05T15:44:13.451Z,46.10
2022-10-05T15:47:02.834Z,46.31
2022-10-05T15:49:37.081Z,46.50
2022-10-05T15:52:12.176Z,46.76
2022-10-05T15:55:04.804Z,47.05
2022-10-05T15:57:53.643Z,46.90
2022-10-05T16:00:21.047Z,47.35
2022-10-05T16:03:02.662Z,47.59
2022-10-05T16:05:56.648Z,47.56
2022-10-05T16:08:51.100Z,47.87
2022-10-05T16:11:42.539Z,48.06
2022-10-05T16:14:43.521Z,48.41
2022-10-05T16:17:47.324Z,48.85
2022-10-05T16:20:23.007Z,49.16
2022-10-05T16:22:52.131Z,49.33
2022-10-05T16:25:34.948Z,49.56
2022-10-05T16:28:20.461Z,49.76
2022-10-05T16:31:03.269Z,49.73
2022-10-05T16:33:48.007Z,49.87
2022-10-05T16:36:26.712Z,49.96
2022-10-05T16:39:01.330Z,50.28
2022-10-05T16:41:35.105Z,50.25
2022-10-05T16:44:13.466Z,50.52
2022-10-05T16:46:47.098Z,50.83
2022-10-05T16:49:38.537Z,50.86
2022-10-05T16:52:07.224Z,51.18
2022-10-05T16:54:47.713Z,51.14
2022-10-05T16:57:27.543Z,51.35
2022-10-05T17:00:19.472Z,51.53
2022-10-05T17:02:55.403Z,51.88
2022-10-05T17:06:07.851Z,51.96
2022-10-05T17:09:19.083Z,52.16
2022-10-05T17:12:10.663Z,52.31
2022-10-05T17:14:59.292Z,52.61
2022-10-05T17:17:51.997Z,52.66
2022-10-05T17:20:42.767Z,52.92
2022-10-05T17:23:31.244Z,53.02
2022-10-05T17:26:34.418Z,53.33
2022-10-05T17:29:32.161Z,53.37
2022-10-05T17:32:12.235Z,53.59
2022-10-05T17:34:39.995Z,53.97
2022-10-05T17:37:36.012Z,54.08
2022-10-05T17:40:28.584Z,54.09
2022-10-05T17:43:17.310Z,54.29
2022-10-05T17:45:43.807Z,54.37
2022-10-05T17:48:13.337Z,54.65
2022-10-05T17:51:05.490Z,55.16
2022-10-05T17:54:07.409Z,55.07
2022-10-05T17:56:48.890Z,55.04
2022-10-05T17:59:46.354Z,55.26
2022-10-05T18:02:43.455Z,55.44
2022-10-05T18:05:12.197Z,55.51
2022-10-05T18:07:39.562Z,55.80
2022-10-05T18:10:12.204Z,55.93
2022-10-05T18:12:42.514Z,56.05
2022-10-05T18:15:24.477Z,56.12
2022-10-05T18:17:51.560Z,56.04
2022-10-05T18:20:24.000Z,56.09
2022-10-05T18:22:53.348Z,56.28
2022-10-05T18:25:27.206Z,56.32
2022-10-05T18:28:09.117Z,56.38
2022-10-05T18:31:05.929Z,56.30
2022-10-05T18:33:54.689Z,56.46
2022-10-05T18:36:44.579Z,56.48
2022-10-05T18:39:15.394Z,56.50
2022-10-05T18:42:22.993Z,56.72
2022-10-05T18:44:51.734Z,56.78
2022-10-05T18:47:22.458Z,57.09
2022-10-05T18:49:51.838Z,57.13
2022-10-05T18:52:36.599Z,57.45
2022-10-05T18:55:24.829Z,57.43
2022-10-05T18:58:00.750Z,57.47
2022-10-05T19:00:40.994Z,57.66
2022-10-05T19:03:26.846Z,57.65
2022-10-05T19:06:13.043Z,57.81
2022-10-05T19:09:24.741Z,57.81
2022-10-05T19:12:12.215Z,57.86
2022-10-05T19:15:06.784Z,57.84
2022-10-05T19:17:52.189Z,58.02
2022-10-05T19:20:41.698Z,58.15
2022-10-05T19:23:16.872Z,58.21
2022-10-05T19:25:47.689Z,58.31
2022-10-05T19:28:29.716Z,58.44
2022-10-05T19:31:21.335Z,58.54
2022-10-05T19:34:10.746Z,58.50
2022-10-05T19:37:10.519Z,58.61
2022-10-05T19:39:46.433Z,58.58
2022-10-05T19:42:47.329Z,58.72
2022-10-05T19:45:27.224Z,58.80
2022-10-05T19:48:02.918Z,58.90
2022-10-05T19:50:30.934Z,59.08
2022-10-05T19:53:23.178Z,59.05
2022-10-05T19:55:49.854Z,59.06
2022-10-05T19:58:25.239Z,59.33
2022-10-05T20:00:58.648Z,59.25
2022-10-05T20:03:32.439Z,59.32
2022-10-05T20:06:06.003Z,59.48
2022-10-05T20:08:51.312Z,59.52
2022-10-05T20:11:19.566Z,59.49
2022-10-05T20:13:48.475Z,59.55
2022-10-05T20:16:33.814Z,59.71
2022-10-05T20:19:19.694Z,59.89
2022-10-05T20:21:46.203Z,59.88
2022-10-05T20:24:20.958Z,60.06
2022-10-05T20:27:16.542Z,60.10
2022-10-05T20:29:44.266Z,60.19
2022-10-05T20:32:12.292Z,60.31
2022-10-05T20:34:43.557Z,60.39
2022-10-05T20:37:11.642Z,60.31
2022-10-05T20:39:38.419Z,60.52
2022-10-05T20:42:05.273Z,60.62
2022-10-05T20:44:31.877Z,60.75
2022-10-05T20:46:58.723Z,60.85
2022-10-05T20:49:26.580Z,60.94
2022-10-05T20:51:55.685Z,60.93
2022-10-05T20:54:25.283Z,60.96
2022-10-05T20:56:52.386Z,61.13
2022-10-05T20:59:19.123Z,61.26
2022-10-05T21:01:48.137Z,61.16
2022-10-05T21:04:18.991Z,61.25
2022-10-05T21:06:45.954Z,61.35
2022-10-05T21:09:14.702Z,61.52
2022-10-05T21:11:45.177Z,61.66
2022-10-05T21:14:11.947Z,61.71
2022-10-05T21:16:40.923Z,61.85
2022-10-05T21:19:12.307Z,61.86
2022-10-05T21:21:40.170Z,61.94
2022-10-05T21:24:06.908Z,62.12
2022-10-05T21:26:33.838Z,62.16
2022-10-05T21:29:01.124Z,62.29
2022-10-05T21:31:28.276Z,62.44
2022-10-05T21:33:55.167Z,62.52
2022-10-05T21:36:24.578Z,62.60
2022-10-05T21:38:51.953Z,62.62
2022-10-05T21:41:18.982Z,62.76
2022-10-05T21:43:45.703Z,62.83
2022-10-05T21:46:14.592Z,62.89
2022-10-05T21:48:41.558Z,62.96
2022-10-05T21:51:08.777Z,63.15
2022-10-05T21:53:37.820Z,63.20
2022-10-05T21:56:05.684Z,63.20
2022-10-05T21:58:32.410Z,63.24
2022-10-05T22:00:58.905Z,63.29
2022-10-05T22:03:25.692Z,63.38
2022-10-05T22:05:52.395Z,63.45
2022-10-05T22:08:24.706Z,63.56
2022-10-05T22:10:52.922Z,63.48
2022-10-05T22:13:19.830Z,63.56
2022-10-05T22:15:46.455Z,63.73
2022-10-05T22:18:15.899Z,63.81
2022-10-05T22:20:42.943Z,63.87
2022-10-05T22:23:09.477Z,63.97
2022-10-05T22:25:36.172Z,64.08
2022-10-05T22:28:02.908Z,64.15
2022-10-05T22:30:29.521Z,64.15
2022-10-05T22:32:56.277Z,64.29
2022-10-05T22:35:22.884Z,64.31
2022-10-05T22:37:49.403Z,64.39
2022-10-05T22:40:16.289Z,64.46
2022-10-05T22:42:43.271Z,64.54
2022-10-05T22:45:09.734Z,64.66
2022-10-05T22:47:36.358Z,64.82
2022-10-05T22:50:03.458Z,64.86
2022-10-05T22:52:29.905Z,64.95
2022-10-05T22:54:56.830Z,65.02
2022-10-05T22:57:23.665Z,64.97
2022-10-05T22:59:50.169Z,64.98
2022-10-05T23:02:18.808Z,64.99
2022-10-05T23:04:46.160Z,65.13
2022-10-05T23:07:12.604Z,65.19
2022-10-05T23:09:39.421Z,65.15
2022-10-05T23:12:06.151Z,65.04
2022-10-05T23:14:33.401Z,64.92
2022-10-05T23:17:00.432Z,64.95
2022-10-05T23:19:26.990Z,64.97
2022-10-05T23:21:53.626Z,64.89
2022-10-05T23:24:20.570Z,64.90
2022-10-05T23:26:47.027Z,64.84
2022-10-05T23:29:13.525Z,64.81
2022-10-05T23:31:40.790Z,64.84
2022-10-05T23:34:07.427Z,64.77
2022-10-05T23:36:33.918Z,64.68
2022-10-05T23:39:01.001Z,64.74
2022-10-05T23:41:27.509Z,64.65
2022-10-05T23:43:55.391Z,64.70
2022-10-05T23:46:22.588Z,64.74
2022-10-05T23:48:50.536Z,64.66
2022-10-05T23:51:17.063Z,64.64
2022-10-05T23:53:44.224Z,64.59
2022-10-05T23:56:10.690Z,64.50
2022-10-05T23:58:37.337Z,64.49
